sensor_id;sensor_type;location;lat;lon;timestamp;P1;durP1;ratioP1;P2;durP2;ratioP2
56329;SDS011;42236;48.058;10.632;2023-03-21T00:02:22;5.03;;;2.67;;
56329;SDS011;42236;48.058;10.632;2023-03-21T00:05:09;2.77;;;2.37;;
56329;SDS011;42236;48.058;10.632;2023-03-21T00:07:54;4.37;;;2.67;;
56329;SDS011;42236;48.058;10.632;2023-03-21T00:10:40;3.47;;;2.47;;
56329;SDS011;42236;48.058;10.632;2023-03-21T00:13:27;3.70;;;2.43;;
56329;SDS011;42236;48.058;10.632;2023-03-21T00:16:17;4.33;;;2.37;;
56329;SDS011;42236;48.058;10.632;2023-03-21T00:19:03;2.70;;;2.50;;
56329;SDS011;42236;48.058;10.632;2023-03-21T00:21:50;4.17;;;2.87;;
56329;SDS011;42236;48.058;10.632;2023-03-21T00:24:37;3.27;;;2.70;;
56329;SDS011;42236;48.058;10.632;2023-03-21T00:27:23;2.83;;;2.57;;
56329;SDS011;42236;48.058;10.632;2023-03-21T00:30:09;4.17;;;2.53;;
56329;SDS011;42236;48.058;10.632;2023-03-21T00:32:56;3.33;;;2.87;;
56329;SDS011;42236;48.058;10.632;2023-03-21T00:35:42;4.47;;;3.20;;
56329;SDS011;42236;48.058;10.632;2023-03-21T00:38:28;4.10;;;2.73;;
56329;SDS011;42236;48.058;10.632;2023-03-21T00:41:14;3.60;;;2.60;;
56329;SDS011;42236;48.058;10.632;2023-03-21T00:44:00;4.67;;;2.67;;
56329;SDS011;42236;48.058;10.632;2023-03-21T00:46:46;2.87;;;2.47;;
56329;SDS011;42236;48.058;10.632;2023-03-21T00:49:32;4.07;;;2.30;;
56329;SDS011;42236;48.058;10.632;2023-03-21T00:52:22;2.47;;;2.27;;
56329;SDS011;42236;48.058;10.632;2023-03-21T00:55:10;4.70;;;2.37;;
56329;SDS011;42236;48.058;10.632;2023-03-21T00:57:58;3.10;;;2.50;;
56329;SDS011;42236;48.058;10.632;2023-03-21T01:00:44;2.77;;;2.27;;
56329;SDS011;42236;48.058;10.632;2023-03-21T01:03:33;2.40;;;2.27;;
56329;SDS011;42236;48.058;10.632;2023-03-21T01:06:26;2.90;;;2.20;;
56329;SDS011;42236;48.058;10.632;2023-03-21T01:09:16;2.60;;;2.37;;
56329;SDS011;42236;48.058;10.632;2023-03-21T01:12:03;5.57;;;2.73;;
56329;SDS011;42236;48.058;10.632;2023-03-21T01:14:49;2.60;;;2.23;;
56329;SDS011;42236;48.058;10.632;2023-03-21T01:17:35;3.00;;;2.47;;
56329;SDS011;42236;48.058;10.632;2023-03-21T01:20:21;3.47;;;2.67;;
56329;SDS011;42236;48.058;10.632;2023-03-21T01:23:07;4.93;;;2.50;;
56329;SDS011;42236;48.058;10.632;2023-03-21T01:25:53;3.47;;;2.57;;
56329;SDS011;42236;48.058;10.632;2023-03-21T01:28:41;4.60;;;2.73;;
56329;SDS011;42236;48.058;10.632;2023-03-21T01:31:28;3.27;;;2.10;;
56329;SDS011;42236;48.058;10.632;2023-03-21T01:34:14;6.47;;;2.67;;
56329;SDS011;42236;48.058;10.632;2023-03-21T01:37:00;5.63;;;2.67;;
56329;SDS011;42236;48.058;10.632;2023-03-21T01:39:45;4.93;;;2.53;;
56329;SDS011;42236;48.058;10.632;2023-03-21T01:42:31;2.77;;;2.47;;
56329;SDS011;42236;48.058;10.632;2023-03-21T01:48:41;2.70;;;2.50;;
56329;SDS011;42236;48.058;10.632;2023-03-21T01:51:28;2.30;;;2.10;;
56329;SDS011;42236;48.058;10.632;2023-03-21T01:54:19;3.47;;;2.17;;
56329;SDS011;42236;48.058;10.632;2023-03-21T01:57:15;3.93;;;2.53;;
56329;SDS011;42236;48.058;10.632;2023-03-21T02:00:05;2.57;;;2.37;;
56329;SDS011;42236;48.058;10.632;2023-03-21T02:02:57;3.43;;;2.37;;
56329;SDS011;42236;48.058;10.632;2023-03-21T02:05:59;2.57;;;2.13;;
56329;SDS011;42236;48.058;10.632;2023-03-21T02:08:46;2.83;;;2.40;;
56329;SDS011;42236;48.058;10.632;2023-03-21T02:11:33;2.40;;;2.20;;
56329;SDS011;42236;48.058;10.632;2023-03-21T02:14:20;2.03;;;1.90;;
56329;SDS011;42236;48.058;10.632;2023-03-21T02:17:14;2.60;;;2.27;;
56329;SDS011;42236;48.058;10.632;2023-03-21T02:23:17;2.80;;;2.27;;
56329;SDS011;42236;48.058;10.632;2023-03-21T02:29:56;2.87;;;2.10;;
56329;SDS011;42236;48.058;10.632;2023-03-21T02:33:04;3.63;;;2.60;;
56329;SDS011;42236;48.058;10.632;2023-03-21T02:38:55;2.37;;;2.13;;
56329;SDS011;42236;48.058;10.632;2023-03-21T02:42:15;4.13;;;2.23;;
56329;SDS011;42236;48.058;10.632;2023-03-21T02:45:28;2.50;;;2.00;;
56329;SDS011;42236;48.058;10.632;2023-03-21T02:48:28;3.23;;;2.73;;
56329;SDS011;42236;48.058;10.632;2023-03-21T02:51:19;3.03;;;2.10;;
56329;SDS011;42236;48.058;10.632;2023-03-21T02:54:12;2.40;;;2.20;;
56329;SDS011;42236;48.058;10.632;2023-03-21T02:57:01;3.07;;;2.80;;
56329;SDS011;42236;48.058;10.632;2023-03-21T02:59:49;2.47;;;2.27;;
56329;SDS011;42236;48.058;10.632;2023-03-21T03:02:36;3.07;;;2.37;;
56329;SDS011;42236;48.058;10.632;2023-03-21T03:05:23;3.30;;;2.73;;
56329;SDS011;42236;48.058;10.632;2023-03-21T03:23:52;2.20;;;2.00;;
56329;SDS011;42236;48.058;10.632;2023-03-21T03:27:12;2.67;;;2.20;;
56329;SDS011;42236;48.058;10.632;2023-03-21T03:30:02;5.20;;;2.90;;
56329;SDS011;42236;48.058;10.632;2023-03-21T03:32:52;2.87;;;2.53;;
56329;SDS011;42236;48.058;10.632;2023-03-21T03:35:42;3.17;;;2.87;;
56329;SDS011;42236;48.058;10.632;2023-03-21T03:38:30;3.57;;;2.80;;
56329;SDS011;42236;48.058;10.632;2023-03-21T03:41:18;3.27;;;2.97;;
56329;SDS011;42236;48.058;10.632;2023-03-21T03:44:08;2.63;;;2.43;;
56329;SDS011;42236;48.058;10.632;2023-03-21T03:46:56;4.37;;;2.53;;
56329;SDS011;42236;48.058;10.632;2023-03-21T03:49:50;3.57;;;2.33;;
56329;SDS011;42236;48.058;10.632;2023-03-21T03:52:47;2.83;;;2.53;;
56329;SDS011;42236;48.058;10.632;2023-03-21T03:55:35;3.40;;;2.67;;
56329;SDS011;42236;48.058;10.632;2023-03-21T03:58:23;3.33;;;3.03;;
56329;SDS011;42236;48.058;10.632;2023-03-21T04:01:09;4.17;;;3.37;;
56329;SDS011;42236;48.058;10.632;2023-03-21T04:03:55;3.63;;;3.33;;
56329;SDS011;42236;48.058;10.632;2023-03-21T04:06:44;3.23;;;2.83;;
56329;SDS011;42236;48.058;10.632;2023-03-21T04:09:35;3.67;;;2.90;;
56329;SDS011;42236;48.058;10.632;2023-03-21T04:12:21;2.93;;;2.63;;
56329;SDS011;42236;48.058;10.632;2023-03-21T04:15:07;4.07;;;3.10;;
56329;SDS011;42236;48.058;10.632;2023-03-21T04:17:53;2.90;;;2.57;;
56329;SDS011;42236;48.058;10.632;2023-03-21T04:20:40;4.73;;;2.90;;
56329;SDS011;42236;48.058;10.632;2023-03-21T04:23:25;3.33;;;2.77;;
56329;SDS011;42236;48.058;10.632;2023-03-21T04:26:13;3.77;;;2.90;;
56329;SDS011;42236;48.058;10.632;2023-03-21T04:28:59;4.50;;;3.60;;
56329;SDS011;42236;48.058;10.632;2023-03-21T04:31:47;3.60;;;2.90;;
56329;SDS011;42236;48.058;10.632;2023-03-21T04:34:34;3.27;;;2.80;;
56329;SDS011;42236;48.058;10.632;2023-03-21T04:37:24;8.23;;;3.30;;
56329;SDS011;42236;48.058;10.632;2023-03-21T04:40:12;3.27;;;2.97;;
56329;SDS011;42236;48.058;10.632;2023-03-21T04:43:01;6.83;;;3.53;;
56329;SDS011;42236;48.058;10.632;2023-03-21T04:45:47;4.20;;;3.20;;
56329;SDS011;42236;48.058;10.632;2023-03-21T04:48:33;4.53;;;2.80;;
56329;SDS011;42236;48.058;10.632;2023-03-21T04:51:18;5.23;;;3.50;;
56329;SDS011;42236;48.058;10.632;2023-03-21T04:54:04;3.20;;;2.80;;
56329;SDS011;42236;48.058;10.632;2023-03-21T04:56:51;4.40;;;3.30;;
56329;SDS011;42236;48.058;10.632;2023-03-21T04:59:36;3.23;;;2.90;;
56329;SDS011;42236;48.058;10.632;2023-03-21T05:02:22;3.43;;;2.87;;
56329;SDS011;42236;48.058;10.632;2023-03-21T05:05:08;3.17;;;2.57;;
56329;SDS011;42236;48.058;10.632;2023-03-21T05:07:55;4.40;;;3.00;;
56329;SDS011;42236;48.058;10.632;2023-03-21T05:10:41;5.20;;;3.33;;
56329;SDS011;42236;48.058;10.632;2023-03-21T05:13:27;3.93;;;2.43;;
56329;SDS011;42236;48.058;10.632;2023-03-21T05:16:13;5.20;;;3.27;;
56329;SDS011;42236;48.058;10.632;2023-03-21T05:18:59;5.90;;;3.40;;
56329;SDS011;42236;48.058;10.632;2023-03-21T05:21:49;3.50;;;2.60;;
56329;SDS011;42236;48.058;10.632;2023-03-21T05:24:35;2.77;;;2.57;;
56329;SDS011;42236;48.058;10.632;2023-03-21T05:27:26;6.60;;;3.03;;
56329;SDS011;42236;48.058;10.632;2023-03-21T05:30:20;3.80;;;2.47;;
56329;SDS011;42236;48.058;10.632;2023-03-21T05:33:06;4.00;;;2.90;;
56329;SDS011;42236;48.058;10.632;2023-03-21T05:35:52;2.63;;;2.37;;
56329;SDS011;42236;48.058;10.632;2023-03-21T05:38:37;2.87;;;2.53;;
56329;SDS011;42236;48.058;10.632;2023-03-21T05:41:27;3.37;;;3.07;;
56329;SDS011;42236;48.058;10.632;2023-03-21T05:44:12;2.90;;;2.50;;
56329;SDS011;42236;48.058;10.632;2023-03-21T05:46:58;4.93;;;2.53;;
56329;SDS011;42236;48.058;10.632;2023-03-21T05:49:44;2.83;;;2.20;;
56329;SDS011;42236;48.058;10.632;2023-03-21T05:52:30;2.60;;;2.40;;
56329;SDS011;42236;48.058;10.632;2023-03-21T05:55:15;3.13;;;2.50;;
56329;SDS011;42236;48.058;10.632;2023-03-21T05:58:01;4.90;;;2.40;;
56329;SDS011;42236;48.058;10.632;2023-03-21T06:00:47;2.30;;;2.10;;
56329;SDS011;42236;48.058;10.632;2023-03-21T06:03:33;2.73;;;2.43;;
56329;SDS011;42236;48.058;10.632;2023-03-21T06:06:19;5.83;;;2.53;;
56329;SDS011;42236;48.058;10.632;2023-03-21T06:09:05;3.70;;;2.00;;
56329;SDS011;42236;48.058;10.632;2023-03-21T06:11:52;3.17;;;2.67;;
56329;SDS011;42236;48.058;10.632;2023-03-21T06:14:39;3.00;;;2.70;;
56329;SDS011;42236;48.058;10.632;2023-03-21T06:17:25;2.47;;;2.10;;
56329;SDS011;42236;48.058;10.632;2023-03-21T06:20:11;2.63;;;2.27;;
56329;SDS011;42236;48.058;10.632;2023-03-21T06:22:57;4.67;;;2.07;;
56329;SDS011;42236;48.058;10.632;2023-03-21T06:25:43;2.23;;;2.03;;
56329;SDS011;42236;48.058;10.632;2023-03-21T06:28:29;4.40;;;2.43;;
56329;SDS011;42236;48.058;10.632;2023-03-21T06:31:14;3.30;;;2.10;;
56329;SDS011;42236;48.058;10.632;2023-03-21T06:34:00;2.63;;;2.43;;
56329;SDS011;42236;48.058;10.632;2023-03-21T06:36:46;3.70;;;2.30;;
56329;SDS011;42236;48.058;10.632;2023-03-21T06:39:31;7.40;;;2.53;;
56329;SDS011;42236;48.058;10.632;2023-03-21T06:42:17;4.80;;;2.50;;
56329;SDS011;42236;48.058;10.632;2023-03-21T06:45:03;3.40;;;2.53;;
56329;SDS011;42236;48.058;10.632;2023-03-21T06:47:50;3.70;;;2.77;;
56329;SDS011;42236;48.058;10.632;2023-03-21T06:50:36;3.60;;;2.50;;
56329;SDS011;42236;48.058;10.632;2023-03-21T06:53:22;2.50;;;2.30;;
56329;SDS011;42236;48.058;10.632;2023-03-21T06:56:12;2.90;;;2.20;;
56329;SDS011;42236;48.058;10.632;2023-03-21T06:58:58;3.60;;;2.50;;
56329;SDS011;42236;48.058;10.632;2023-03-21T07:01:44;2.37;;;2.17;;
56329;SDS011;42236;48.058;10.632;2023-03-21T07:04:30;4.83;;;2.10;;
56329;SDS011;42236;48.058;10.632;2023-03-21T07:07:16;4.67;;;2.63;;
56329;SDS011;42236;48.058;10.632;2023-03-21T07:10:02;4.17;;;3.30;;
56329;SDS011;42236;48.058;10.632;2023-03-21T07:12:48;3.27;;;2.53;;
56329;SDS011;42236;48.058;10.632;2023-03-21T07:15:34;2.47;;;2.20;;
56329;SDS011;42236;48.058;10.632;2023-03-21T07:18:22;2.73;;;2.33;;
56329;SDS011;42236;48.058;10.632;2023-03-21T07:21:08;3.03;;;2.27;;
56329;SDS011;42236;48.058;10.632;2023-03-21T07:23:54;2.40;;;2.20;;
56329;SDS011;42236;48.058;10.632;2023-03-21T07:26:39;2.77;;;2.23;;
56329;SDS011;42236;48.058;10.632;2023-03-21T07:29:25;2.93;;;2.13;;
56329;SDS011;42236;48.058;10.632;2023-03-21T07:32:11;2.43;;;2.23;;
56329;SDS011;42236;48.058;10.632;2023-03-21T07:34:57;3.50;;;2.80;;
56329;SDS011;42236;48.058;10.632;2023-03-21T07:37:42;3.20;;;2.70;;
56329;SDS011;42236;48.058;10.632;2023-03-21T07:40:28;3.13;;;2.70;;
56329;SDS011;42236;48.058;10.632;2023-03-21T07:43:14;3.43;;;2.30;;
56329;SDS011;42236;48.058;10.632;2023-03-21T07:46:01;2.13;;;1.93;;
56329;SDS011;42236;48.058;10.632;2023-03-21T07:48:46;5.10;;;2.30;;
56329;SDS011;42236;48.058;10.632;2023-03-21T07:51:32;4.23;;;2.30;;
56329;SDS011;42236;48.058;10.632;2023-03-21T07:54:19;2.87;;;2.67;;
56329;SDS011;42236;48.058;10.632;2023-03-21T07:57:07;4.87;;;2.60;;
56329;SDS011;42236;48.058;10.632;2023-03-21T07:59:52;2.47;;;2.27;;
56329;SDS011;42236;48.058;10.632;2023-03-21T08:02:38;2.70;;;2.50;;
56329;SDS011;42236;48.058;10.632;2023-03-21T08:05:26;3.93;;;2.37;;
56329;SDS011;42236;48.058;10.632;2023-03-21T08:08:14;3.23;;;2.67;;
56329;SDS011;42236;48.058;10.632;2023-03-21T08:10:59;3.73;;;2.40;;
56329;SDS011;42236;48.058;10.632;2023-03-21T08:13:45;4.87;;;2.93;;
56329;SDS011;42236;48.058;10.632;2023-03-21T08:16:31;5.23;;;2.47;;
56329;SDS011;42236;48.058;10.632;2023-03-21T08:19:16;4.47;;;2.80;;
56329;SDS011;42236;48.058;10.632;2023-03-21T08:22:05;4.27;;;2.60;;
56329;SDS011;42236;48.058;10.632;2023-03-21T08:24:51;5.27;;;2.43;;
56329;SDS011;42236;48.058;10.632;2023-03-21T08:27:36;6.88;;;2.55;;
56329;SDS011;42236;48.058;10.632;2023-03-21T08:30:22;5.23;;;2.70;;
56329;SDS011;42236;48.058;10.632;2023-03-21T08:33:10;2.73;;;2.47;;
56329;SDS011;42236;48.058;10.632;2023-03-21T08:35:58;3.05;;;2.47;;
56329;SDS011;42236;48.058;10.632;2023-03-21T08:38:44;5.38;;;2.78;;
56329;SDS011;42236;48.058;10.632;2023-03-21T08:41:33;2.50;;;2.30;;
56329;SDS011;42236;48.058;10.632;2023-03-21T08:44:21;2.58;;;2.38;;
56329;SDS011;42236;48.058;10.632;2023-03-21T08:47:07;4.03;;;3.15;;
56329;SDS011;42236;48.058;10.632;2023-03-21T08:49:52;3.60;;;2.53;;
56329;SDS011;42236;48.058;10.632;2023-03-21T08:52:38;3.80;;;2.65;;
56329;SDS011;42236;48.058;10.632;2023-03-21T08:55:23;3.15;;;2.85;;
56329;SDS011;42236;48.058;10.632;2023-03-21T08:58:10;2.97;;;2.65;;
56329;SDS011;42236;48.058;10.632;2023-03-21T09:00:56;3.05;;;2.72;;
56329;SDS011;42236;48.058;10.632;2023-03-21T09:03:42;3.85;;;2.92;;
56329;SDS011;42236;48.058;10.632;2023-03-21T09:06:28;4.03;;;2.72;;
56329;SDS011;42236;48.058;10.632;2023-03-21T09:09:15;2.35;;;1.98;;
56329;SDS011;42236;48.058;10.632;2023-03-21T09:12:00;2.67;;;2.30;;
56329;SDS011;42236;48.058;10.632;2023-03-21T09:14:46;3.47;;;2.60;;
56329;SDS011;42236;48.058;10.632;2023-03-21T09:17:32;4.82;;;2.97;;
56329;SDS011;42236;48.058;10.632;2023-03-21T09:20:18;2.63;;;2.05;;
56329;SDS011;42236;48.058;10.632;2023-03-21T09:23:14;3.13;;;2.25;;
56329;SDS011;42236;48.058;10.632;2023-03-21T09:26:00;3.03;;;2.15;;
56329;SDS011;42236;48.058;10.632;2023-03-21T09:28:46;2.25;;;1.80;;
56329;SDS011;42236;48.058;10.632;2023-03-21T09:31:33;2.45;;;2.25;;
56329;SDS011;42236;48.058;10.632;2023-03-21T09:34:19;2.50;;;2.30;;
56329;SDS011;42236;48.058;10.632;2023-03-21T09:37:05;2.40;;;2.20;;
56329;SDS011;42236;48.058;10.632;2023-03-21T09:39:58;2.45;;;1.73;;
56329;SDS011;42236;48.058;10.632;2023-03-21T09:45:39;3.28;;;2.05;;
56329;SDS011;42236;48.058;10.632;2023-03-21T09:48:38;2.67;;;2.25;;
56329;SDS011;42236;48.058;10.632;2023-03-21T09:51:37;2.13;;;1.90;;
56329;SDS011;42236;48.058;10.632;2023-03-21T09:54:27;8.88;;;2.80;;
56329;SDS011;42236;48.058;10.632;2023-03-21T10:00:12;4.55;;;2.25;;
56329;SDS011;42236;48.058;10.632;2023-03-21T10:03:20;3.08;;;2.15;;
56329;SDS011;42236;48.058;10.632;2023-03-21T10:06:10;3.50;;;2.08;;
56329;SDS011;42236;48.058;10.632;2023-03-21T10:09:04;1.92;;;1.80;;
56329;SDS011;42236;48.058;10.632;2023-03-21T10:12:05;2.03;;;1.83;;
56329;SDS011;42236;48.058;10.632;2023-03-21T10:14:59;3.25;;;1.83;;
56329;SDS011;42236;48.058;10.632;2023-03-21T10:18:07;2.65;;;2.00;;
56329;SDS011;42236;48.058;10.632;2023-03-21T10:20:52;2.35;;;1.83;;
56329;SDS011;42236;48.058;10.632;2023-03-21T10:23:39;2.33;;;2.13;;
56329;SDS011;42236;48.058;10.632;2023-03-21T10:26:25;3.05;;;2.40;;
56329;SDS011;42236;48.058;10.632;2023-03-21T10:29:13;3.42;;;2.45;;
56329;SDS011;42236;48.058;10.632;2023-03-21T10:32:01;3.30;;;2.63;;
56329;SDS011;42236;48.058;10.632;2023-03-21T10:34:49;2.58;;;2.00;;
56329;SDS011;42236;48.058;10.632;2023-03-21T10:37:37;2.47;;;2.13;;
56329;SDS011;42236;48.058;10.632;2023-03-21T10:40:35;2.30;;;1.98;;
56329;SDS011;42236;48.058;10.632;2023-03-21T10:46:18;2.30;;;2.10;;
56329;SDS011;42236;48.058;10.632;2023-03-21T10:49:08;2.70;;;2.50;;
56329;SDS011;42236;48.058;10.632;2023-03-21T10:51:57;2.72;;;2.20;;
56329;SDS011;42236;48.058;10.632;2023-03-21T10:54:46;2.50;;;2.30;;
56329;SDS011;42236;48.058;10.632;2023-03-21T10:57:33;2.88;;;2.55;;
56329;SDS011;42236;48.058;10.632;2023-03-21T11:00:24;2.42;;;2.22;;
56329;SDS011;42236;48.058;10.632;2023-03-21T11:03:20;2.17;;;2.08;;
56329;SDS011;42236;48.058;10.632;2023-03-21T11:09:07;2.28;;;2.08;;
56329;SDS011;42236;48.058;10.632;2023-03-21T11:12:02;2.20;;;1.98;;
56329;SDS011;42236;48.058;10.632;2023-03-21T11:14:55;2.30;;;2.10;;
56329;SDS011;42236;48.058;10.632;2023-03-21T11:17:41;2.08;;;1.98;;
56329;SDS011;42236;48.058;10.632;2023-03-21T11:20:29;2.45;;;2.25;;
56329;SDS011;42236;48.058;10.632;2023-03-21T11:23:16;2.00;;;1.80;;
56329;SDS011;42236;48.058;10.632;2023-03-21T11:26:02;4.85;;;2.75;;
56329;SDS011;42236;48.058;10.632;2023-03-21T11:28:54;3.22;;;2.42;;
56329;SDS011;42236;48.058;10.632;2023-03-21T11:31:40;2.03;;;1.90;;
56329;SDS011;42236;48.058;10.632;2023-03-21T11:34:30;2.75;;;2.38;;
56329;SDS011;42236;48.058;10.632;2023-03-21T11:40:29;3.13;;;2.85;;
56329;SDS011;42236;48.058;10.632;2023-03-21T11:46:08;3.50;;;2.33;;
56329;SDS011;42236;48.058;10.632;2023-03-21T11:48:58;3.03;;;2.78;;
56329;SDS011;42236;48.058;10.632;2023-03-21T11:51:53;2.60;;;2.40;;
56329;SDS011;42236;48.058;10.632;2023-03-21T11:58:04;2.47;;;2.28;;
56329;SDS011;42236;48.058;10.632;2023-03-21T12:01:04;4.18;;;2.75;;
56329;SDS011;42236;48.058;10.632;2023-03-21T12:04:03;4.25;;;2.97;;
56329;SDS011;42236;48.058;10.632;2023-03-21T12:07:00;2.97;;;2.78;;
56329;SDS011;42236;48.058;10.632;2023-03-21T12:13:35;2.60;;;2.40;;
56329;SDS011;42236;48.058;10.632;2023-03-21T12:16:34;3.47;;;2.97;;
56329;SDS011;42236;48.058;10.632;2023-03-21T12:19:50;4.40;;;3.28;;
56329;SDS011;42236;48.058;10.632;2023-03-21T12:22:55;3.67;;;2.95;;
56329;SDS011;42236;48.058;10.632;2023-03-21T12:43:41;3.85;;;2.33;;
56329;SDS011;42236;48.058;10.632;2023-03-21T12:47:03;3.00;;;2.80;;
56329;SDS011;42236;48.058;10.632;2023-03-21T12:49:59;3.03;;;2.72;;
56329;SDS011;42236;48.058;10.632;2023-03-21T12:52:55;3.60;;;2.67;;
56329;SDS011;42236;48.058;10.632;2023-03-21T12:55:45;2.97;;;2.78;;
56329;SDS011;42236;48.058;10.632;2023-03-21T12:58:40;3.47;;;2.83;;
56329;SDS011;42236;48.058;10.632;2023-03-21T13:01:32;3.85;;;2.95;;
56329;SDS011;42236;48.058;10.632;2023-03-21T13:07:58;3.38;;;2.72;;
56329;SDS011;42236;48.058;10.632;2023-03-21T13:10:51;3.65;;;3.30;;
56329;SDS011;42236;48.058;10.632;2023-03-21T13:16:38;3.72;;;3.42;;
56329;SDS011;42236;48.058;10.632;2023-03-21T13:19:37;4.05;;;3.03;;
56329;SDS011;42236;48.058;10.632;2023-03-21T13:22:28;5.15;;;3.35;;
56329;SDS011;42236;48.058;10.632;2023-03-21T13:25:19;2.70;;;2.50;;
56329;SDS011;42236;48.058;10.632;2023-03-21T13:28:11;3.33;;;2.92;;
56329;SDS011;42236;48.058;10.632;2023-03-21T13:34:06;2.72;;;2.53;;
56329;SDS011;42236;48.058;10.632;2023-03-21T13:36:54;4.00;;;2.33;;
56329;SDS011;42236;48.058;10.632;2023-03-21T13:39:44;2.92;;;2.28;;
56329;SDS011;42236;48.058;10.632;2023-03-21T13:42:31;2.58;;;2.38;;
56329;SDS011;42236;48.058;10.632;2023-03-21T13:45:26;2.90;;;2.38;;
56329;SDS011;42236;48.058;10.632;2023-03-21T13:48:31;2.78;;;2.58;;
56329;SDS011;42236;48.058;10.632;2023-03-21T14:00:19;2.13;;;1.92;;
56329;SDS011;42236;48.058;10.632;2023-03-21T14:03:07;3.67;;;1.73;;
56329;SDS011;42236;48.058;10.632;2023-03-21T14:05:57;2.42;;;2.00;;
56329;SDS011;42236;48.058;10.632;2023-03-21T14:08:44;2.00;;;1.90;;
56329;SDS011;42236;48.058;10.632;2023-03-21T14:11:32;3.50;;;2.15;;
56329;SDS011;42236;48.058;10.632;2023-03-21T14:14:19;2.55;;;2.00;;
56329;SDS011;42236;48.058;10.632;2023-03-21T14:17:13;2.08;;;1.90;;
56329;SDS011;42236;48.058;10.632;2023-03-21T14:20:13;2.20;;;2.00;;
56329;SDS011;42236;48.058;10.632;2023-03-21T14:23:03;1.83;;;1.67;;
56329;SDS011;42236;48.058;10.632;2023-03-21T14:25:50;3.47;;;1.88;;
56329;SDS011;42236;48.058;10.632;2023-03-21T14:28:36;2.38;;;2.17;;
56329;SDS011;42236;48.058;10.632;2023-03-21T14:31:26;2.80;;;2.60;;
56329;SDS011;42236;48.058;10.632;2023-03-21T14:34:12;4.45;;;2.28;;
56329;SDS011;42236;48.058;10.632;2023-03-21T14:37:01;3.50;;;2.45;;
56329;SDS011;42236;48.058;10.632;2023-03-21T14:39:55;3.25;;;2.75;;
56329;SDS011;42236;48.058;10.632;2023-03-21T14:42:44;3.53;;;2.70;;
56329;SDS011;42236;48.058;10.632;2023-03-21T14:45:33;3.10;;;2.90;;
56329;SDS011;42236;48.058;10.632;2023-03-21T14:48:31;2.92;;;2.72;;
56329;SDS011;42236;48.058;10.632;2023-03-21T14:51:28;4.10;;;2.70;;
56329;SDS011;42236;48.058;10.632;2023-03-21T14:54:14;2.85;;;2.55;;
56329;SDS011;42236;48.058;10.632;2023-03-21T14:57:03;3.42;;;2.42;;
56329;SDS011;42236;48.058;10.632;2023-03-21T15:00:06;3.03;;;2.38;;
56329;SDS011;42236;48.058;10.632;2023-03-21T15:03:00;3.13;;;2.55;;
56329;SDS011;42236;48.058;10.632;2023-03-21T15:05:47;4.30;;;2.53;;
56329;SDS011;42236;48.058;10.632;2023-03-21T15:08:33;3.05;;;2.80;;
56329;SDS011;42236;48.058;10.632;2023-03-21T15:11:19;3.17;;;2.67;;
56329;SDS011;42236;48.058;10.632;2023-03-21T15:14:14;3.38;;;3.08;;
56329;SDS011;42236;48.058;10.632;2023-03-21T15:17:02;3.67;;;3.05;;
56329;SDS011;42236;48.058;10.632;2023-03-21T15:19:50;3.53;;;2.95;;
56329;SDS011;42236;48.058;10.632;2023-03-21T15:22:38;3.33;;;3.13;;
56329;SDS011;42236;48.058;10.632;2023-03-21T15:25:29;3.15;;;2.50;;
56329;SDS011;42236;48.058;10.632;2023-03-21T15:28:18;2.97;;;2.75;;
56329;SDS011;42236;48.058;10.632;2023-03-21T15:31:04;3.92;;;3.58;;
56329;SDS011;42236;48.058;10.632;2023-03-21T15:34:02;3.78;;;3.47;;
56329;SDS011;42236;48.058;10.632;2023-03-21T15:36:49;3.45;;;3.15;;
56329;SDS011;42236;48.058;10.632;2023-03-21T15:39:40;3.05;;;2.85;;
56329;SDS011;42236;48.058;10.632;2023-03-21T15:42:28;3.90;;;3.60;;
56329;SDS011;42236;48.058;10.632;2023-03-21T15:48:08;4.50;;;3.67;;
56329;SDS011;42236;48.058;10.632;2023-03-21T15:51:04;4.70;;;2.83;;
56329;SDS011;42236;48.058;10.632;2023-03-21T15:53:51;4.10;;;3.50;;
56329;SDS011;42236;48.058;10.632;2023-03-21T15:56:39;4.45;;;3.13;;
56329;SDS011;42236;48.058;10.632;2023-03-21T15:59:27;5.82;;;3.05;;
56329;SDS011;42236;48.058;10.632;2023-03-21T16:02:21;3.22;;;2.92;;
56329;SDS011;42236;48.058;10.632;2023-03-21T16:05:23;2.92;;;2.63;;
56329;SDS011;42236;48.058;10.632;2023-03-21T16:11:07;3.88;;;2.90;;
56329;SDS011;42236;48.058;10.632;2023-03-21T16:14:00;3.08;;;2.78;;
56329;SDS011;42236;48.058;10.632;2023-03-21T16:16:46;3.65;;;3.33;;
56329;SDS011;42236;48.058;10.632;2023-03-21T16:19:32;2.17;;;1.20;;
56329;SDS011;42236;48.058;10.632;2023-03-21T16:22:18;3.17;;;1.40;;
56329;SDS011;42236;48.058;10.632;2023-03-21T16:25:05;1.63;;;1.52;;
56329;SDS011;42236;48.058;10.632;2023-03-21T16:27:52;2.35;;;1.40;;
56329;SDS011;42236;48.058;10.632;2023-03-21T16:30:37;1.27;;;1.17;;
56329;SDS011;42236;48.058;10.632;2023-03-21T16:33:23;1.80;;;1.15;;
56329;SDS011;42236;48.058;10.632;2023-03-21T16:36:13;2.83;;;1.30;;
56329;SDS011;42236;48.058;10.632;2023-03-21T16:38:59;1.40;;;1.20;;
56329;SDS011;42236;48.058;10.632;2023-03-21T16:41:45;1.20;;;1.10;;
56329;SDS011;42236;48.058;10.632;2023-03-21T16:44:32;2.17;;;1.30;;
56329;SDS011;42236;48.058;10.632;2023-03-21T16:47:18;1.20;;;1.10;;
56329;SDS011;42236;48.058;10.632;2023-03-21T16:53:08;2.33;;;1.58;;
56329;SDS011;42236;48.058;10.632;2023-03-21T16:55:54;1.35;;;1.25;;
56329;SDS011;42236;48.058;10.632;2023-03-21T16:58:40;1.25;;;1.20;;
56329;SDS011;42236;48.058;10.632;2023-03-21T17:01:26;1.40;;;1.30;;
56329;SDS011;42236;48.058;10.632;2023-03-21T17:04:15;1.50;;;1.25;;
56329;SDS011;42236;48.058;10.632;2023-03-21T17:07:02;1.60;;;1.30;;
56329;SDS011;42236;48.058;10.632;2023-03-21T17:10:00;1.45;;;1.35;;
56329;SDS011;42236;48.058;10.632;2023-03-21T17:12:46;1.50;;;1.40;;
56329;SDS011;42236;48.058;10.632;2023-03-21T17:15:32;1.70;;;1.10;;
56329;SDS011;42236;48.058;10.632;2023-03-21T17:18:18;1.40;;;1.30;;
56329;SDS011;42236;48.058;10.632;2023-03-21T17:21:14;4.85;;;1.58;;
56329;SDS011;42236;48.058;10.632;2023-03-21T17:24:01;1.50;;;1.38;;
56329;SDS011;42236;48.058;10.632;2023-03-21T17:26:47;2.92;;;1.40;;
56329;SDS011;42236;48.058;10.632;2023-03-21T17:29:33;3.60;;;1.55;;
56329;SDS011;42236;48.058;10.632;2023-03-21T17:32:22;3.20;;;1.75;;
56329;SDS011;42236;48.058;10.632;2023-03-21T17:35:13;1.30;;;1.20;;
56329;SDS011;42236;48.058;10.632;2023-03-21T17:37:59;2.40;;;1.50;;
56329;SDS011;42236;48.058;10.632;2023-03-21T17:40:45;1.83;;;1.40;;
56329;SDS011;42236;48.058;10.632;2023-03-21T17:43:31;3.33;;;1.88;;
56329;SDS011;42236;48.058;10.632;2023-03-21T17:46:18;2.70;;;1.63;;
56329;SDS011;42236;48.058;10.632;2023-03-21T17:49:06;3.13;;;2.53;;
56329;SDS011;42236;48.058;10.632;2023-03-21T17:51:54;2.03;;;1.77;;
56329;SDS011;42236;48.058;10.632;2023-03-21T17:54:40;2.83;;;1.73;;
56329;SDS011;42236;48.058;10.632;2023-03-21T17:57:26;3.05;;;1.67;;
56329;SDS011;42236;48.058;10.632;2023-03-21T18:00:16;3.17;;;1.90;;
56329;SDS011;42236;48.058;10.632;2023-03-21T18:03:05;2.08;;;1.80;;
56329;SDS011;42236;48.058;10.632;2023-03-21T18:05:51;2.03;;;1.73;;
56329;SDS011;42236;48.058;10.632;2023-03-21T18:08:36;2.83;;;1.92;;
56329;SDS011;42236;48.058;10.632;2023-03-21T18:11:22;2.13;;;1.90;;
56329;SDS011;42236;48.058;10.632;2023-03-21T18:14:09;2.20;;;1.67;;
56329;SDS011;42236;48.058;10.632;2023-03-21T18:16:54;1.60;;;1.50;;
56329;SDS011;42236;48.058;10.632;2023-03-21T18:19:40;2.53;;;1.75;;
56329;SDS011;42236;48.058;10.632;2023-03-21T18:22:26;3.13;;;2.05;;